首页
METAR-TAF:

METAR-TAF

机场 :

東京國際機場

东京国际机场, 日本

纬度: 35-33N, 经度: 139-47E, 海拔: 5米

当前天气观测

该预报发布于33分钟前的22:37 UTC
风速19节,风向南转南东
温度 20°C
湿度 94%
气压 1003 hPa
能見度: 3500
少量云层高于900英尺
多云层高于1200英尺
多云层高于2000英尺
阵雨, 轻雾

METAR: RJTT 202237Z 16019KT 3500 R34L/P2000N R22/P2000N R16L/P2000N R23/P2000N SHRA BR FEW009 BKN012 BKN020 20/19 Q1003 RMK 1ST009 5CU012 6CU020 A2962

时间: 08:10 (23:10 UTC)

预报

该预报发布于5小时和59分钟前的17:11 UTC
预报有效从20日的 18点(UTC)到 22日的 00点(UTC)
风速16节,风向南转南东
能見度: 6000
少量云层高于600英尺
多云层高于1200英尺
小阵雨
短暂存在
从 20日的 18点(UTC)到 20日的 22点(UTC)
能見度: 2000
少量云层高于300英尺
多云层高于500英尺
大阵雨, 轻雾
短暂存在
从 20日的 22点(UTC)到 21日的 03点(UTC)
风速34节,风向,有时为44节阵风
能見度: 2000
少量云层高于300英尺
多云层高于500英尺
大阵雨, 轻雾
短暂存在
从 21日的 03点(UTC)到 21日的 06点(UTC)
能見度: 2000
少量云层高于300英尺
多云层高于500英尺
大阵雨, 轻雾
成为
从 21日的 09点(UTC)到 21日的 12点(UTC)
风速12节,风向北转东北

TAF: RJTT 201711Z 2018/2200 16016KT 6000 -SHRA FEW006 BKN012 TEMPO 2018/2022 2000 +SHRA BR FEW003 BKN005 TEMPO 2022/2103 18034G44KT 2000 +SHRA BR FEW003 BKN005 TEMPO 2103/2106 2000 +SHRA BR FEW003 BKN005 BECMG 2109/2112 03012KT

超过4000个机场的气象观测和天气预报(METAR&TAF报告)。

可查询的气象台以黄色和红色小点在地图上表示。

将鼠标移到小点上方,可查看气象台名称。

然后点击查看天气观测和预报。

如需切换地图:点击带黑十字的绿色按钮放大地图;点击带横线的绿色按钮缩小地图;或者点击绿色箭头查看邻近地区的地图。


METAR-TAF: